createdAt,value
2019-04-06T00:01:47.725Z,8.23
2019-04-06T00:04:16.842Z,8.15
2019-04-06T00:06:46.432Z,8.10
2019-04-06T00:09:17.459Z,8.07
2019-04-06T00:11:46.381Z,8.06
2019-04-06T00:14:15.688Z,8.03
2019-04-06T00:16:44.751Z,7.98
2019-04-06T00:19:13.601Z,7.95
2019-04-06T00:21:43.652Z,7.90
2019-04-06T00:24:12.597Z,7.85
2019-04-06T00:26:41.695Z,7.81
2019-04-06T00:29:14.683Z,7.74
2019-04-06T00:31:53.840Z,7.71
2019-04-06T00:34:24.724Z,7.68
2019-04-06T00:36:53.830Z,7.64
2019-04-06T00:39:23.889Z,7.59
2019-04-06T00:41:53.047Z,7.54
2019-04-06T00:44:22.033Z,7.46
2019-04-06T00:46:51.291Z,7.45
2019-04-06T00:49:20.555Z,7.43
2019-04-06T00:51:49.499Z,7.41
2019-04-06T00:54:18.592Z,7.37
2019-04-06T00:56:47.783Z,7.33
2019-04-06T00:59:16.806Z,7.29
2019-04-06T01:01:46.026Z,7.24
2019-04-06T01:04:15.218Z,7.19
2019-04-06T01:06:44.415Z,7.13
2019-04-06T01:09:13.466Z,7.11
2019-04-06T01:11:42.438Z,7.09
2019-04-06T01:14:11.613Z,7.05
2019-04-06T01:16:40.939Z,7.02
2019-04-06T01:19:10.030Z,6.97
2019-04-06T01:21:39.187Z,6.97
2019-04-06T01:24:08.081Z,6.92
2019-04-06T01:26:37.321Z,6.89
2019-04-06T01:29:06.548Z,6.90
2019-04-06T01:31:35.751Z,6.88
2019-04-06T01:34:04.922Z,6.89
2019-04-06T01:36:33.996Z,6.87
2019-04-06T01:39:03.487Z,6.88
2019-04-06T01:41:32.336Z,6.90
2019-04-06T01:44:01.534Z,6.90
2019-04-06T01:46:30.676Z,6.85
2019-04-06T01:48:59.742Z,6.86
2019-04-06T01:51:28.628Z,6.87
2019-04-06T01:53:57.831Z,6.86
2019-04-06T01:56:26.991Z,6.84
2019-04-06T01:58:56.144Z,6.78
2019-04-06T02:01:36.947Z,6.79
2019-04-06T02:04:06.166Z,6.78
2019-04-06T02:06:35.317Z,6.77
2019-04-06T02:09:06.189Z,6.74
2019-04-06T02:11:35.798Z,6.72
2019-04-06T02:14:04.709Z,6.69
2019-04-06T02:16:33.543Z,6.68
2019-04-06T02:19:02.775Z,6.67
2019-04-06T02:21:31.991Z,6.65
2019-04-06T02:24:01.077Z,6.63
2019-04-06T02:26:31.303Z,6.61
2019-04-06T02:29:00.749Z,6.57
2019-04-06T02:31:48.285Z,6.53
2019-04-06T02:34:29.131Z,6.51
2019-04-06T02:37:36.355Z,6.49
2019-04-06T02:40:31.493Z,6.47
2019-04-06T02:43:28.602Z,6.44
2019-04-06T02:45:58.205Z,6.42
2019-04-06T02:48:27.585Z,6.39
2019-04-06T02:50:56.889Z,6.37
2019-04-06T02:53:25.890Z,6.35
2019-04-06T02:55:54.858Z,6.35
2019-04-06T02:58:24.940Z,6.35
2019-04-06T03:00:54.881Z,6.33
2019-04-06T03:03:24.686Z,6.31
2019-04-06T03:05:53.907Z,6.29
2019-04-06T03:08:23.242Z,6.28
2019-04-06T03:10:52.319Z,6.26
2019-04-06T03:13:21.893Z,6.10
2019-04-06T03:15:51.971Z,6.24
2019-04-06T03:18:20.727Z,6.23
2019-04-06T03:20:50.115Z,6.24
2019-04-06T03:23:19.351Z,6.22
2019-04-06T03:25:48.394Z,6.21
2019-04-06T03:28:17.479Z,6.19
2019-04-06T03:30:47.247Z,6.19
2019-04-06T03:33:16.509Z,6.17
2019-04-06T03:35:48.465Z,6.15
2019-04-06T03:38:16.346Z,6.14
2019-04-06T03:40:45.572Z,6.15
2019-04-06T03:43:14.791Z,6.13
2019-04-06T03:45:43.725Z,6.12
2019-04-06T03:48:13.457Z,6.10
2019-04-06T03:50:42.544Z,6.12
2019-04-06T03:53:11.753Z,6.11
2019-04-06T03:55:42.592Z,6.09
2019-04-06T03:58:11.690Z,6.03
2019-04-06T04:00:40.540Z,6.03
2019-04-06T04:03:10.593Z,6.03
2019-04-06T04:05:39.872Z,6.03
2019-04-06T04:08:08.921Z,6.04
2019-04-06T04:10:39.006Z,6.03
2019-04-06T04:13:08.016Z,6.02
2019-04-06T04:15:36.870Z,6.01
2019-04-06T04:18:06.181Z,6.01
2019-04-06T04:20:35.315Z,5.98
2019-04-06T04:23:04.590Z,5.94
2019-04-06T04:25:35.635Z,5.93
2019-04-06T04:28:04.173Z,5.92
2019-04-06T04:30:35.316Z,5.89
2019-04-06T04:33:04.469Z,5.84
2019-04-06T04:35:33.645Z,5.81
2019-04-06T04:38:02.883Z,5.83
2019-04-06T04:40:32.135Z,5.83
2019-04-06T04:43:01.227Z,5.82
2019-04-06T04:45:30.563Z,5.81
2019-04-06T04:47:59.551Z,5.78
2019-04-06T04:50:28.652Z,5.76
2019-04-06T04:52:58.071Z,5.72
2019-04-06T04:55:27.036Z,5.72
2019-04-06T04:57:56.268Z,5.74
2019-04-06T05:00:25.156Z,5.75
2019-04-06T05:02:54.194Z,5.74
2019-04-06T05:05:23.241Z,5.72
2019-04-06T05:07:52.776Z,5.73
2019-04-06T05:10:22.112Z,5.78
2019-04-06T05:12:51.539Z,5.86
2019-04-06T05:15:30.400Z,5.92
2019-04-06T05:17:59.259Z,5.97
2019-04-06T05:20:28.486Z,6.03
2019-04-06T05:22:57.456Z,6.09
2019-04-06T05:25:26.688Z,6.16
2019-04-06T05:27:55.638Z,6.26
2019-04-06T05:30:24.959Z,6.31
2019-04-06T05:32:54.161Z,6.38
2019-04-06T05:35:23.912Z,6.47
2019-04-06T05:37:52.919Z,6.53
2019-04-06T05:40:21.938Z,6.60
2019-04-06T05:42:51.500Z,6.68
2019-04-06T05:45:20.891Z,6.76
2019-04-06T05:47:49.793Z,6.82
2019-04-06T05:50:18.700Z,6.92
2019-04-06T05:52:47.530Z,7.02
2019-04-06T05:55:16.707Z,7.10
2019-04-06T05:57:45.586Z,7.17
2019-04-06T06:00:14.915Z,7.29
2019-04-06T06:02:43.979Z,7.37
2019-04-06T06:05:13.004Z,7.49
2019-04-06T06:07:42.178Z,7.58
2019-04-06T06:10:11.695Z,7.68
2019-04-06T06:12:41.273Z,7.83
2019-04-06T06:15:10.363Z,7.97
2019-04-06T06:17:39.600Z,8.05
2019-04-06T06:20:09.373Z,8.21
2019-04-06T06:22:38.463Z,8.39
2019-04-06T06:25:08.564Z,8.59
2019-04-06T06:27:37.564Z,8.76
2019-04-06T06:30:08.968Z,8.89
2019-04-06T06:32:38.293Z,8.95
2019-04-06T06:35:07.219Z,9.03
2019-04-06T06:37:37.231Z,9.08
2019-04-06T06:40:06.932Z,9.28
2019-04-06T06:42:36.085Z,9.41
2019-04-06T06:45:07.675Z,9.61
2019-04-06T06:47:36.706Z,9.80
2019-04-06T06:50:06.617Z,9.84
2019-04-06T06:52:35.903Z,9.99
2019-04-06T06:55:06.291Z,10.03
2019-04-06T06:57:35.404Z,10.02
2019-04-06T07:00:04.961Z,10.05
2019-04-06T07:02:36.924Z,10.04
2019-04-06T07:05:07.397Z,10.00
2019-04-06T07:07:36.564Z,10.11
2019-04-06T07:10:06.761Z,10.30
2019-04-06T07:12:35.792Z,10.45
2019-04-06T07:15:05.879Z,10.37
2019-04-06T07:17:35.551Z,10.49
2019-04-06T07:20:05.907Z,10.58
2019-04-06T07:22:35.428Z,10.57
2019-04-06T07:25:04.729Z,10.57
2019-04-06T07:27:33.739Z,10.80
2019-04-06T07:30:03.276Z,11.21
2019-04-06T07:32:32.375Z,11.46
2019-04-06T07:35:01.408Z,11.76
2019-04-06T07:37:30.437Z,12.02
2019-04-06T07:39:59.777Z,11.71
2019-04-06T07:42:29.478Z,11.71
2019-04-06T07:44:58.672Z,11.71
2019-04-06T07:47:27.683Z,11.88
2019-04-06T07:49:57.023Z,12.03
2019-04-06T07:52:26.246Z,12.28
2019-04-06T07:54:55.309Z,12.58
2019-04-06T07:57:24.748Z,12.43
2019-04-06T07:59:53.632Z,12.24
2019-04-06T08:02:22.720Z,12.25
2019-04-06T08:04:51.962Z,12.33
2019-04-06T08:07:22.206Z,12.69
2019-04-06T08:09:51.274Z,12.73
2019-04-06T08:12:20.370Z,12.72
2019-04-06T08:14:50.176Z,12.80
2019-04-06T08:17:19.093Z,12.90
2019-04-06T08:19:48.394Z,13.12
2019-04-06T08:22:17.317Z,13.21
2019-04-06T08:24:46.322Z,13.36
2019-04-06T08:27:15.748Z,13.18
2019-04-06T08:29:45.086Z,12.86
2019-04-06T08:32:14.553Z,12.79
2019-04-06T08:34:43.755Z,13.08
2019-04-06T08:37:13.004Z,13.40
2019-04-06T08:39:42.317Z,13.73
2019-04-06T08:42:11.451Z,13.79
2019-04-06T08:44:40.656Z,13.84
2019-04-06T08:47:09.829Z,13.97
2019-04-06T08:49:46.342Z,14.11
2019-04-06T08:52:15.543Z,14.28
2019-04-06T08:54:45.118Z,14.57
2019-04-06T08:57:15.134Z,14.98
2019-04-06T08:59:53.882Z,15.01
2019-04-06T09:02:23.426Z,15.20
2019-04-06T09:04:53.079Z,15.33
2019-04-06T09:07:22.333Z,15.45
2019-04-06T09:09:51.591Z,15.61
2019-04-06T09:12:20.957Z,15.21
2019-04-06T09:14:49.921Z,14.92
2019-04-06T09:17:19.219Z,14.89
2019-04-06T09:19:48.257Z,14.80
2019-04-06T09:22:18.551Z,14.58
2019-04-06T09:24:48.151Z,14.44
2019-04-06T09:27:17.964Z,14.42
2019-04-06T09:29:47.108Z,14.52
2019-04-06T09:32:18.862Z,14.60
2019-04-06T09:34:47.817Z,14.76
2019-04-06T09:37:17.835Z,14.99
2019-04-06T09:39:47.953Z,15.27
2019-04-06T09:42:17.843Z,15.44
2019-04-06T09:45:09.408Z,15.73
2019-04-06T09:47:58.357Z,15.91
2019-04-06T09:50:52.858Z,16.39
2019-04-06T09:53:45.003Z,16.65
2019-04-06T09:56:22.220Z,16.79
2019-04-06T09:59:00.098Z,17.18
2019-04-06T10:01:54.423Z,17.33
2019-04-06T10:05:01.418Z,17.27
2019-04-06T10:07:48.079Z,17.34
2019-04-06T10:10:35.445Z,17.66
2019-04-06T10:13:13.550Z,17.66
2019-04-06T10:16:01.201Z,17.94
2019-04-06T10:18:36.335Z,17.94
2019-04-06T10:21:23.784Z,17.94
2019-04-06T10:24:01.351Z,18.64
2019-04-06T10:27:22.038Z,18.65
2019-04-06T10:30:17.203Z,18.59
2019-04-06T10:32:59.421Z,18.90
2019-04-06T10:35:52.296Z,18.93
2019-04-06T10:38:41.660Z,18.98
2019-04-06T10:41:38.698Z,18.99
2019-04-06T10:44:26.638Z,19.08
2019-04-06T10:47:23.971Z,18.97
2019-04-06T10:50:05.159Z,18.87
2019-04-06T10:52:42.304Z,19.36
2019-04-06T10:55:30.069Z,19.51
2019-04-06T10:58:20.280Z,19.31
2019-04-06T11:01:05.151Z,19.58
2019-04-06T11:03:40.181Z,19.39
2019-04-06T11:06:35.166Z,19.62
2019-04-06T11:09:23.815Z,19.45
2019-04-06T11:12:00.608Z,19.45
2019-04-06T11:14:45.548Z,20.01
2019-04-06T11:17:37.173Z,19.72
2019-04-06T11:20:24.192Z,19.72
2019-04-06T11:23:07.461Z,19.39
2019-04-06T11:26:07.820Z,19.73
2019-04-06T11:28:58.599Z,19.82
2019-04-06T11:31:45.380Z,19.82
2019-04-06T11:34:28.862Z,19.97
2019-04-06T11:37:16.050Z,20.06
2019-04-06T11:40:03.698Z,19.91
2019-04-06T11:42:50.728Z,20.16
2019-04-06T11:45:39.702Z,20.75
2019-04-06T11:49:24.775Z,20.47
2019-04-06T11:52:12.983Z,20.27
2019-04-06T11:55:07.973Z,20.22
2019-04-06T11:57:54.714Z,20.52
2019-04-06T12:00:37.415Z,20.18
2019-04-06T12:03:24.526Z,20.30
2019-04-06T12:06:01.130Z,19.98
2019-04-06T12:08:43.326Z,20.10
2019-04-06T12:11:29.140Z,20.32
2019-04-06T12:14:42.316Z,20.04
2019-04-06T12:17:33.424Z,19.94
2019-04-06T12:20:36.818Z,19.69
2019-04-06T12:23:24.631Z,19.49
2019-04-06T12:26:00.481Z,19.49
2019-04-06T12:28:47.462Z,19.51
2019-04-06T12:31:34.733Z,19.37
2019-04-06T12:34:12.663Z,19.20
2019-04-06T12:36:51.469Z,19.20
2019-04-06T12:39:27.536Z,19.23
2019-04-06T12:42:22.799Z,19.04
2019-04-06T12:45:21.930Z,19.08
2019-04-06T12:48:19.711Z,19.19
2019-04-06T12:51:00.020Z,19.16
2019-04-06T12:53:51.499Z,19.15
2019-04-06T12:56:40.331Z,19.13
2019-04-06T12:59:31.665Z,19.15
2019-04-06T13:02:18.199Z,19.18
2019-04-06T13:05:15.317Z,19.19
2019-04-06T13:08:10.038Z,19.29
2019-04-06T13:10:58.249Z,19.34
2019-04-06T13:13:47.045Z,19.43
2019-04-06T13:16:47.339Z,19.45
2019-04-06T13:19:40.780Z,19.46
2019-04-06T13:22:36.657Z,19.51
2019-04-06T13:25:39.814Z,19.52
2019-04-06T13:28:27.812Z,19.51
2019-04-06T13:31:08.523Z,19.46
2019-04-06T13:34:02.630Z,19.47
2019-04-06T13:36:54.106Z,19.64
2019-04-06T13:39:42.129Z,19.69
2019-04-06T13:42:29.185Z,19.70
2019-04-06T13:45:20.310Z,19.61
2019-04-06T13:48:07.336Z,19.61
2019-04-06T13:50:45.764Z,19.66
2019-04-06T13:53:45.116Z,19.63
2019-04-06T13:56:39.062Z,19.57
2019-04-06T13:59:39.788Z,19.58
2019-04-06T14:05:38.909Z,19.68
2019-04-06T14:08:20.695Z,19.73
2019-04-06T14:11:05.960Z,19.75
2019-04-06T14:13:57.591Z,19.76
2019-04-06T14:16:45.884Z,19.74
2019-04-06T14:19:46.449Z,19.77
2019-04-06T14:22:38.183Z,19.84
2019-04-06T14:25:26.494Z,19.83
2019-04-06T14:28:09.412Z,19.81
2019-04-06T14:30:58.309Z,19.86
2019-04-06T14:34:05.397Z,19.87
2019-04-06T14:37:05.359Z,19.84
2019-04-06T14:40:21.560Z,19.82
2019-04-06T14:43:19.210Z,19.86
2019-04-06T14:45:56.889Z,19.94
2019-04-06T14:48:36.791Z,20.03
2019-04-06T14:54:12.922Z,19.95
2019-04-06T14:56:50.725Z,19.87
2019-04-06T15:02:38.268Z,19.89
2019-04-06T15:05:38.681Z,19.80
2019-04-06T15:08:27.358Z,19.76
2019-04-06T15:11:15.354Z,19.71
2019-04-06T15:14:02.217Z,19.66
2019-04-06T15:16:51.201Z,19.61
2019-04-06T15:19:37.038Z,19.53
2019-04-06T15:22:20.827Z,19.44
2019-04-06T15:25:05.199Z,19.37
2019-04-06T15:27:56.780Z,19.32
2019-04-06T15:30:38.490Z,19.20
2019-04-06T15:33:35.304Z,19.14
2019-04-06T15:36:35.519Z,19.13
2019-04-06T15:39:25.338Z,19.02
2019-04-06T15:42:05.844Z,18.86
2019-04-06T15:44:42.861Z,18.77
2019-04-06T15:47:30.011Z,18.71
2019-04-06T15:50:22.972Z,18.65
2019-04-06T15:52:58.313Z,18.60
2019-04-06T15:55:40.580Z,18.58
2019-04-06T15:58:18.427Z,18.54
2019-04-06T16:01:12.860Z,18.53
2019-04-06T16:03:52.748Z,18.49
2019-04-06T16:06:47.166Z,18.41
2019-04-06T16:09:32.128Z,18.41
2019-04-06T16:12:13.925Z,18.37
2019-04-06T16:14:56.502Z,18.30
2019-04-06T16:17:35.254Z,18.14
2019-04-06T16:20:26.569Z,17.99
2019-04-06T16:23:06.260Z,17.80
2019-04-06T16:25:50.933Z,17.80
2019-04-06T16:28:29.010Z,17.72
2019-04-06T16:31:16.373Z,17.58
2019-04-06T16:34:11.474Z,17.58
2019-04-06T16:36:53.401Z,17.52
2019-04-06T16:39:45.788Z,17.50
2019-04-06T16:42:35.858Z,17.44
2019-04-06T16:45:23.861Z,17.41
2019-04-06T16:48:02.049Z,17.35
2019-04-06T16:50:44.522Z,17.23
2019-04-06T16:53:32.818Z,17.23
2019-04-06T16:56:25.951Z,17.23
2019-04-06T16:59:01.433Z,17.19
2019-04-06T17:01:43.280Z,17.11
2019-04-06T17:04:22.966Z,17.05
2019-04-06T17:06:59.632Z,17.00
2019-04-06T17:10:00.374Z,16.87
2019-04-06T17:12:46.663Z,16.87
2019-04-06T17:15:36.319Z,16.79
2019-04-06T17:18:23.667Z,16.70
2019-04-06T17:21:03.885Z,16.62
2019-04-06T17:23:38.575Z,16.53
2019-04-06T17:26:28.939Z,16.42
2019-04-06T17:29:11.992Z,16.37
2019-04-06T17:31:59.067Z,16.24
2019-04-06T17:34:54.420Z,16.16
2019-04-06T17:37:30.592Z,16.10
2019-04-06T17:40:23.677Z,16.02
2019-04-06T17:43:21.482Z,15.94
2019-04-06T17:46:00.717Z,15.86
2019-04-06T17:48:48.761Z,15.76
2019-04-06T17:51:37.306Z,15.72
2019-04-06T17:54:43.566Z,15.69
2019-04-06T17:57:38.145Z,15.62
2019-04-06T18:03:38.573Z,15.50
2019-04-06T18:06:18.827Z,15.41
2019-04-06T18:09:06.478Z,15.32
2019-04-06T18:11:43.247Z,15.24
2019-04-06T18:14:12.572Z,15.17
2019-04-06T18:16:42.049Z,15.11
2019-04-06T18:19:11.758Z,15.06
2019-04-06T18:21:41.050Z,15.00
2019-04-06T18:24:11.164Z,14.95
2019-04-06T18:26:40.345Z,14.88
2019-04-06T18:29:10.815Z,14.83
2019-04-06T18:32:08.628Z,14.76
2019-04-06T18:34:37.763Z,14.67
2019-04-06T18:37:29.143Z,14.61
2019-04-06T18:39:59.375Z,14.54
2019-04-06T18:42:28.609Z,14.48
2019-04-06T18:44:58.788Z,14.42
2019-04-06T18:47:30.059Z,14.37
2019-04-06T18:49:59.326Z,14.31
2019-04-06T18:52:28.444Z,14.25
2019-04-06T18:54:57.609Z,14.17
2019-04-06T18:57:26.999Z,14.11
2019-04-06T18:59:56.443Z,14.07
2019-04-06T19:02:25.879Z,14.00
2019-04-06T19:04:55.250Z,13.96
2019-04-06T19:07:24.544Z,13.94
2019-04-06T19:09:53.851Z,13.90
2019-04-06T19:12:22.932Z,13.82
2019-04-06T19:14:52.302Z,13.74
2019-04-06T19:17:21.750Z,13.67
2019-04-06T19:19:52.233Z,13.61
2019-04-06T19:22:21.555Z,13.53
2019-04-06T19:24:51.042Z,13.49
2019-04-06T19:27:20.613Z,13.47
2019-04-06T19:29:49.905Z,13.39
2019-04-06T19:32:19.690Z,13.35
2019-04-06T19:34:48.783Z,13.30
2019-04-06T19:37:18.043Z,13.26
2019-04-06T19:39:47.777Z,13.21
2019-04-06T19:42:16.775Z,13.20
2019-04-06T19:44:46.351Z,13.16
2019-04-06T19:47:15.799Z,13.15
2019-04-06T19:49:44.991Z,13.09
2019-04-06T19:52:14.202Z,13.04
2019-04-06T19:54:43.865Z,13.01
2019-04-06T19:57:13.139Z,12.94
2019-04-06T19:59:42.833Z,12.87
2019-04-06T20:02:12.170Z,12.80
2019-04-06T20:04:42.009Z,12.76
2019-04-06T20:07:11.622Z,12.70
2019-04-06T20:09:49.321Z,12.67
2019-04-06T20:12:18.434Z,12.63
2019-04-06T20:14:47.697Z,12.58
2019-04-06T20:17:17.598Z,12.53
2019-04-06T20:19:46.653Z,12.52
2019-04-06T20:22:15.596Z,12.49
2019-04-06T20:24:45.088Z,12.48
2019-04-06T20:27:15.564Z,12.48
2019-04-06T20:29:45.426Z,12.48
2019-04-06T20:32:14.738Z,12.48
2019-04-06T20:34:43.739Z,12.50
2019-04-06T20:37:13.879Z,12.49
2019-04-06T20:39:43.645Z,12.49
2019-04-06T20:42:13.360Z,12.49
2019-04-06T20:44:43.992Z,12.47
2019-04-06T20:47:12.987Z,12.43
2019-04-06T20:49:42.882Z,12.40
2019-04-06T20:52:12.517Z,12.37
2019-04-06T20:54:41.714Z,12.34
2019-04-06T20:57:11.007Z,12.30
2019-04-06T20:59:40.445Z,12.26
2019-04-06T21:02:09.457Z,12.20
2019-04-06T21:04:38.945Z,12.16
2019-04-06T21:07:08.977Z,12.13
2019-04-06T21:09:38.370Z,12.08
2019-04-06T21:12:07.793Z,12.03
2019-04-06T21:14:37.166Z,11.98
2019-04-06T21:17:07.076Z,11.93
2019-04-06T21:19:36.200Z,11.87
2019-04-06T21:22:05.806Z,11.82
2019-04-06T21:24:35.058Z,11.79
2019-04-06T21:27:04.317Z,11.75
2019-04-06T21:29:33.575Z,11.70
2019-04-06T21:32:03.443Z,11.67
2019-04-06T21:34:32.765Z,11.64
2019-04-06T21:37:02.123Z,11.59
2019-04-06T21:39:32.425Z,11.55
2019-04-06T21:42:01.623Z,11.51
2019-04-06T21:44:32.068Z,11.47
2019-04-06T21:47:02.605Z,11.42
2019-04-06T21:49:32.372Z,11.36
2019-04-06T21:52:02.311Z,11.30
2019-04-06T21:54:31.596Z,11.28
2019-04-06T21:57:00.547Z,11.28
2019-04-06T21:59:30.244Z,11.24
2019-04-06T22:01:59.503Z,11.21
2019-04-06T22:04:29.353Z,11.17
2019-04-06T22:06:58.400Z,11.13
2019-04-06T22:09:27.847Z,11.11
2019-04-06T22:11:58.405Z,11.07
2019-04-06T22:14:28.345Z,11.05
2019-04-06T22:16:58.388Z,11.02
2019-04-06T22:19:28.002Z,11.01
2019-04-06T22:21:57.179Z,10.97
2019-04-06T22:24:27.299Z,10.94
2019-04-06T22:26:57.385Z,10.93
2019-04-06T22:29:26.743Z,10.90
2019-04-06T22:31:56.029Z,10.88
2019-04-06T22:34:34.750Z,10.85
2019-04-06T22:36:56.115Z,10.82
2019-04-06T22:39:25.086Z,10.74
2019-04-06T22:41:54.895Z,10.71
2019-04-06T22:44:24.651Z,10.68
2019-04-06T22:46:54.187Z,10.66
2019-04-06T22:49:23.888Z,10.63
2019-04-06T22:51:53.145Z,10.59
2019-04-06T22:54:23.191Z,10.55
2019-04-06T22:56:54.402Z,10.51
2019-04-06T22:59:23.615Z,10.47
2019-04-06T23:01:53.486Z,10.43
2019-04-06T23:04:47.594Z,10.41
2019-04-06T23:07:14.135Z,10.38
2019-04-06T23:09:43.932Z,10.34
2019-04-06T23:12:13.607Z,10.31
2019-04-06T23:14:43.137Z,10.27
2019-04-06T23:17:12.298Z,10.25
2019-04-06T23:19:42.008Z,10.26
2019-04-06T23:22:11.507Z,10.23
2019-04-06T23:24:40.816Z,10.20
2019-04-06T23:27:10.177Z,10.16
2019-04-06T23:29:39.840Z,10.14
2019-04-06T23:32:10.204Z,10.11
2019-04-06T23:34:40.759Z,10.07
2019-04-06T23:37:09.852Z,10.04
2019-04-06T23:39:40.044Z,10.03
2019-04-06T23:42:11.161Z,9.99
2019-04-06T23:44:41.304Z,9.98
2019-04-06T23:47:11.474Z,9.95
2019-04-06T23:49:40.937Z,9.94
2019-04-06T23:52:10.441Z,9.91
2019-04-06T23:54:41.688Z,9.89
2019-04-06T23:57:10.834Z,9.86
2019-04-06T23:59:39.711Z,9.80
